sensor_id;sensor_type;location;lat;lon;timestamp;P1;durP1;ratioP1;P2;durP2;ratioP2
23402;SDS011;11874;48.228;11.684;2023-01-01T00:01:37;100.60;;;59.42;;
23402;SDS011;11874;48.228;11.684;2023-01-01T00:04:10;91.55;;;55.60;;
23402;SDS011;11874;48.228;11.684;2023-01-01T00:06:39;83.18;;;52.25;;
23402;SDS011;11874;48.228;11.684;2023-01-01T00:09:07;86.32;;;54.13;;
23402;SDS011;11874;48.228;11.684;2023-01-01T00:11:53;83.95;;;54.30;;
23402;SDS011;11874;48.228;11.684;2023-01-01T00:14:20;90.40;;;55.80;;
23402;SDS011;11874;48.228;11.684;2023-01-01T00:16:52;90.82;;;57.28;;
23402;SDS011;11874;48.228;11.684;2023-01-01T00:19:22;101.15;;;61.38;;
23402;SDS011;11874;48.228;11.684;2023-01-01T00:21:50;104.13;;;66.15;;
23402;SDS011;11874;48.228;11.684;2023-01-01T00:24:20;108.43;;;66.20;;
23402;SDS011;11874;48.228;11.684;2023-01-01T00:26:48;117.57;;;70.47;;
23402;SDS011;11874;48.228;11.684;2023-01-01T00:29:16;132.45;;;80.20;;
23402;SDS011;11874;48.228;11.684;2023-01-01T00:31:43;135.00;;;81.93;;
23402;SDS011;11874;48.228;11.684;2023-01-01T00:34:13;148.15;;;91.60;;
23402;SDS011;11874;48.228;11.684;2023-01-01T00:36:42;144.77;;;87.68;;
23402;SDS011;11874;48.228;11.684;2023-01-01T00:39:10;132.43;;;83.05;;
23402;SDS011;11874;48.228;11.684;2023-01-01T00:41:37;146.15;;;92.05;;
23402;SDS011;11874;48.228;11.684;2023-01-01T00:44:05;142.18;;;94.22;;
23402;SDS011;11874;48.228;11.684;2023-01-01T00:46:33;166.35;;;103.00;;
23402;SDS011;11874;48.228;11.684;2023-01-01T00:49:01;176.57;;;105.75;;
23402;SDS011;11874;48.228;11.684;2023-01-01T00:51:38;171.88;;;108.40;;
23402;SDS011;11874;48.228;11.684;2023-01-01T00:54:07;179.02;;;112.68;;
23402;SDS011;11874;48.228;11.684;2023-01-01T00:56:35;188.40;;;120.03;;
23402;SDS011;11874;48.228;11.684;2023-01-01T00:59:03;206.63;;;124.43;;
23402;SDS011;11874;48.228;11.684;2023-01-01T01:01:31;197.75;;;120.55;;
23402;SDS011;11874;48.228;11.684;2023-01-01T01:04:00;197.20;;;121.38;;
23402;SDS011;11874;48.228;11.684;2023-01-01T01:06:29;218.02;;;131.35;;
23402;SDS011;11874;48.228;11.684;2023-01-01T01:08:56;208.10;;;126.60;;
23402;SDS011;11874;48.228;11.684;2023-01-01T01:11:25;216.68;;;128.45;;
23402;SDS011;11874;48.228;11.684;2023-01-01T01:13:54;196.70;;;119.05;;
23402;SDS011;11874;48.228;11.684;2023-01-01T01:16:23;187.00;;;114.10;;
23402;SDS011;11874;48.228;11.684;2023-01-01T01:18:52;184.93;;;112.95;;
23402;SDS011;11874;48.228;11.684;2023-01-01T01:21:23;191.20;;;119.25;;
23402;SDS011;11874;48.228;11.684;2023-01-01T01:23:51;164.38;;;102.97;;
23402;SDS011;11874;48.228;11.684;2023-01-01T01:26:20;145.35;;;86.32;;
23402;SDS011;11874;48.228;11.684;2023-01-01T01:28:51;141.40;;;89.32;;
23402;SDS011;11874;48.228;11.684;2023-01-01T01:31:20;133.98;;;83.15;;
23402;SDS011;11874;48.228;11.684;2023-01-01T01:33:49;128.48;;;79.43;;
23402;SDS011;11874;48.228;11.684;2023-01-01T01:36:18;115.57;;;73.15;;
23402;SDS011;11874;48.228;11.684;2023-01-01T01:38:46;116.63;;;71.65;;
23402;SDS011;11874;48.228;11.684;2023-01-01T01:41:14;112.47;;;72.20;;
23402;SDS011;11874;48.228;11.684;2023-01-01T01:43:55;104.68;;;65.72;;
23402;SDS011;11874;48.228;11.684;2023-01-01T01:46:29;105.97;;;64.57;;
23402;SDS011;11874;48.228;11.684;2023-01-01T01:49:02;101.28;;;61.55;;
23402;SDS011;11874;48.228;11.684;2023-01-01T01:51:32;88.28;;;56.63;;
23402;SDS011;11874;48.228;11.684;2023-01-01T01:54:03;80.88;;;49.25;;
23402;SDS011;11874;48.228;11.684;2023-01-01T01:56:38;67.63;;;45.38;;
23402;SDS011;11874;48.228;11.684;2023-01-01T01:59:12;73.05;;;43.03;;
23402;SDS011;11874;48.228;11.684;2023-01-01T02:01:40;69.63;;;44.30;;
23402;SDS011;11874;48.228;11.684;2023-01-01T02:04:08;90.35;;;54.50;;
23402;SDS011;11874;48.228;11.684;2023-01-01T02:06:37;100.80;;;58.90;;
23402;SDS011;11874;48.228;11.684;2023-01-01T02:09:06;95.93;;;59.20;;
23402;SDS011;11874;48.228;11.684;2023-01-01T02:11:35;94.85;;;58.47;;
23402;SDS011;11874;48.228;11.684;2023-01-01T02:14:03;101.53;;;60.00;;
23402;SDS011;11874;48.228;11.684;2023-01-01T02:16:35;111.63;;;66.55;;
23402;SDS011;11874;48.228;11.684;2023-01-01T02:19:08;110.22;;;65.28;;
23402;SDS011;11874;48.228;11.684;2023-01-01T02:21:47;108.57;;;65.75;;
23402;SDS011;11874;48.228;11.684;2023-01-01T02:24:26;114.13;;;65.78;;
23402;SDS011;11874;48.228;11.684;2023-01-01T02:27:07;111.18;;;67.10;;
23402;SDS011;11874;48.228;11.684;2023-01-01T02:29:43;108.18;;;67.95;;
23402;SDS011;11874;48.228;11.684;2023-01-01T02:32:16;102.00;;;65.07;;
23402;SDS011;11874;48.228;11.684;2023-01-01T02:34:48;113.90;;;71.00;;
23402;SDS011;11874;48.228;11.684;2023-01-01T02:37:19;125.55;;;76.25;;
23402;SDS011;11874;48.228;11.684;2023-01-01T02:39:50;112.32;;;70.03;;
23402;SDS011;11874;48.228;11.684;2023-01-01T02:42:22;106.55;;;65.78;;
23402;SDS011;11874;48.228;11.684;2023-01-01T02:47:24;106.40;;;63.38;;
23402;SDS011;11874;48.228;11.684;2023-01-01T02:49:53;94.00;;;56.50;;
23402;SDS011;11874;48.228;11.684;2023-01-01T02:52:44;90.13;;;55.35;;
23402;SDS011;11874;48.228;11.684;2023-01-01T02:55:33;82.10;;;51.60;;
23402;SDS011;11874;48.228;11.684;2023-01-01T02:58:06;71.50;;;44.95;;
23402;SDS011;11874;48.228;11.684;2023-01-01T03:00:58;66.07;;;40.47;;
23402;SDS011;11874;48.228;11.684;2023-01-01T03:03:36;62.45;;;37.25;;
23402;SDS011;11874;48.228;11.684;2023-01-01T03:06:09;51.83;;;33.63;;
23402;SDS011;11874;48.228;11.684;2023-01-01T03:08:50;58.15;;;33.47;;
23402;SDS011;11874;48.228;11.684;2023-01-01T03:11:24;54.65;;;33.45;;
23402;SDS011;11874;48.228;11.684;2023-01-01T03:13:59;50.92;;;33.67;;
23402;SDS011;11874;48.228;11.684;2023-01-01T03:16:34;48.10;;;29.95;;
23402;SDS011;11874;48.228;11.684;2023-01-01T03:19:06;41.00;;;24.92;;
23402;SDS011;11874;48.228;11.684;2023-01-01T03:21:39;33.70;;;22.17;;
23402;SDS011;11874;48.228;11.684;2023-01-01T03:24:11;31.67;;;20.70;;
23402;SDS011;11874;48.228;11.684;2023-01-01T03:26:43;33.35;;;21.70;;
23402;SDS011;11874;48.228;11.684;2023-01-01T03:29:14;37.33;;;23.30;;
23402;SDS011;11874;48.228;11.684;2023-01-01T03:31:45;33.45;;;20.50;;
23402;SDS011;11874;48.228;11.684;2023-01-01T03:34:17;28.90;;;20.77;;
23402;SDS011;11874;48.228;11.684;2023-01-01T03:36:49;34.40;;;20.90;;
23402;SDS011;11874;48.228;11.684;2023-01-01T03:39:22;30.95;;;20.52;;
23402;SDS011;11874;48.228;11.684;2023-01-01T03:41:54;40.10;;;26.20;;
23402;SDS011;11874;48.228;11.684;2023-01-01T03:44:28;33.83;;;23.13;;
23402;SDS011;11874;48.228;11.684;2023-01-01T03:47:01;35.13;;;23.35;;
23402;SDS011;11874;48.228;11.684;2023-01-01T03:49:32;33.95;;;21.80;;
23402;SDS011;11874;48.228;11.684;2023-01-01T03:52:03;35.42;;;23.30;;
23402;SDS011;11874;48.228;11.684;2023-01-01T03:54:43;36.85;;;21.88;;
23402;SDS011;11874;48.228;11.684;2023-01-01T03:57:25;36.17;;;20.25;;
23402;SDS011;11874;48.228;11.684;2023-01-01T03:59:58;26.88;;;17.08;;
23402;SDS011;11874;48.228;11.684;2023-01-01T04:02:35;24.65;;;16.50;;
23402;SDS011;11874;48.228;11.684;2023-01-01T04:05:06;27.15;;;16.85;;
23402;SDS011;11874;48.228;11.684;2023-01-01T04:07:36;27.65;;;18.05;;
23402;SDS011;11874;48.228;11.684;2023-01-01T04:10:05;27.27;;;18.75;;
23402;SDS011;11874;48.228;11.684;2023-01-01T04:12:44;27.13;;;17.20;;
23402;SDS011;11874;48.228;11.684;2023-01-01T04:15:14;24.17;;;15.75;;
23402;SDS011;11874;48.228;11.684;2023-01-01T04:17:43;21.35;;;14.38;;
23402;SDS011;11874;48.228;11.684;2023-01-01T04:20:12;22.30;;;15.85;;
23402;SDS011;11874;48.228;11.684;2023-01-01T04:22:40;22.67;;;14.45;;
23402;SDS011;11874;48.228;11.684;2023-01-01T04:25:08;21.83;;;14.20;;
23402;SDS011;11874;48.228;11.684;2023-01-01T04:27:37;23.17;;;13.45;;
23402;SDS011;11874;48.228;11.684;2023-01-01T04:30:06;22.35;;;14.00;;
23402;SDS011;11874;48.228;11.684;2023-01-01T04:32:35;21.88;;;12.50;;
23402;SDS011;11874;48.228;11.684;2023-01-01T04:35:05;20.08;;;11.98;;
23402;SDS011;11874;48.228;11.684;2023-01-01T04:37:35;14.40;;;10.27;;
23402;SDS011;11874;48.228;11.684;2023-01-01T04:40:03;18.65;;;11.50;;
23402;SDS011;11874;48.228;11.684;2023-01-01T04:42:32;14.15;;;10.05;;
23402;SDS011;11874;48.228;11.684;2023-01-01T04:45:00;12.38;;;9.13;;
23402;SDS011;11874;48.228;11.684;2023-01-01T04:47:29;15.73;;;9.77;;
23402;SDS011;11874;48.228;11.684;2023-01-01T04:49:56;11.93;;;8.13;;
23402;SDS011;11874;48.228;11.684;2023-01-01T04:52:25;13.27;;;7.85;;
23402;SDS011;11874;48.228;11.684;2023-01-01T04:54:53;12.30;;;7.55;;
23402;SDS011;11874;48.228;11.684;2023-01-01T04:57:21;8.70;;;6.47;;
23402;SDS011;11874;48.228;11.684;2023-01-01T04:59:49;9.70;;;6.97;;
23402;SDS011;11874;48.228;11.684;2023-01-01T05:02:17;9.55;;;6.43;;
23402;SDS011;11874;48.228;11.684;2023-01-01T05:04:45;7.53;;;5.65;;
23402;SDS011;11874;48.228;11.684;2023-01-01T05:07:12;7.97;;;5.57;;
23402;SDS011;11874;48.228;11.684;2023-01-01T05:09:41;7.95;;;5.90;;
23402;SDS011;11874;48.228;11.684;2023-01-01T05:12:09;8.20;;;5.20;;
23402;SDS011;11874;48.228;11.684;2023-01-01T05:14:37;8.90;;;5.32;;
23402;SDS011;11874;48.228;11.684;2023-01-01T05:17:05;9.57;;;5.85;;
23402;SDS011;11874;48.228;11.684;2023-01-01T05:19:32;8.00;;;5.45;;
23402;SDS011;11874;48.228;11.684;2023-01-01T05:22:00;9.52;;;5.80;;
23402;SDS011;11874;48.228;11.684;2023-01-01T05:24:35;7.90;;;5.22;;
23402;SDS011;11874;48.228;11.684;2023-01-01T05:27:05;7.60;;;4.85;;
23402;SDS011;11874;48.228;11.684;2023-01-01T05:29:33;10.85;;;5.43;;
23402;SDS011;11874;48.228;11.684;2023-01-01T05:32:01;7.10;;;5.07;;
23402;SDS011;11874;48.228;11.684;2023-01-01T05:34:29;5.82;;;4.00;;
23402;SDS011;11874;48.228;11.684;2023-01-01T05:36:56;7.70;;;5.10;;
23402;SDS011;11874;48.228;11.684;2023-01-01T05:39:24;5.40;;;4.40;;
23402;SDS011;11874;48.228;11.684;2023-01-01T05:41:51;7.82;;;5.00;;
23402;SDS011;11874;48.228;11.684;2023-01-01T05:44:20;7.60;;;4.80;;
23402;SDS011;11874;48.228;11.684;2023-01-01T05:46:48;9.55;;;5.20;;
23402;SDS011;11874;48.228;11.684;2023-01-01T05:49:16;6.68;;;4.03;;
23402;SDS011;11874;48.228;11.684;2023-01-01T05:51:44;7.30;;;4.35;;
23402;SDS011;11874;48.228;11.684;2023-01-01T05:54:12;7.00;;;4.68;;
23402;SDS011;11874;48.228;11.684;2023-01-01T05:56:38;7.97;;;4.40;;
23402;SDS011;11874;48.228;11.684;2023-01-01T05:59:08;8.50;;;4.70;;
23402;SDS011;11874;48.228;11.684;2023-01-01T06:01:37;8.00;;;4.18;;
23402;SDS011;11874;48.228;11.684;2023-01-01T06:04:11;7.82;;;4.55;;
23402;SDS011;11874;48.228;11.684;2023-01-01T06:06:39;7.05;;;3.95;;
23402;SDS011;11874;48.228;11.684;2023-01-01T06:09:08;4.88;;;3.70;;
23402;SDS011;11874;48.228;11.684;2023-01-01T06:11:36;7.07;;;4.00;;
23402;SDS011;11874;48.228;11.684;2023-01-01T06:14:04;4.28;;;3.72;;
23402;SDS011;11874;48.228;11.684;2023-01-01T06:16:32;6.28;;;4.20;;
23402;SDS011;11874;48.228;11.684;2023-01-01T06:19:01;4.65;;;3.53;;
23402;SDS011;11874;48.228;11.684;2023-01-01T06:21:29;3.88;;;2.85;;
23402;SDS011;11874;48.228;11.684;2023-01-01T06:23:57;4.03;;;3.00;;
23402;SDS011;11874;48.228;11.684;2023-01-01T06:26:26;5.90;;;3.17;;
23402;SDS011;11874;48.228;11.684;2023-01-01T06:28:56;3.80;;;2.60;;
23402;SDS011;11874;48.228;11.684;2023-01-01T06:31:24;3.72;;;3.05;;
23402;SDS011;11874;48.228;11.684;2023-01-01T06:33:53;5.35;;;3.10;;
23402;SDS011;11874;48.228;11.684;2023-01-01T06:36:23;4.72;;;2.88;;
23402;SDS011;11874;48.228;11.684;2023-01-01T06:38:52;3.00;;;2.50;;
23402;SDS011;11874;48.228;11.684;2023-01-01T06:41:22;4.93;;;2.65;;
23402;SDS011;11874;48.228;11.684;2023-01-01T06:43:51;3.50;;;2.40;;
23402;SDS011;11874;48.228;11.684;2023-01-01T06:46:23;2.92;;;2.50;;
23402;SDS011;11874;48.228;11.684;2023-01-01T06:48:52;3.15;;;2.13;;
23402;SDS011;11874;48.228;11.684;2023-01-01T06:51:23;3.95;;;2.47;;
23402;SDS011;11874;48.228;11.684;2023-01-01T06:53:51;4.00;;;2.30;;
23402;SDS011;11874;48.228;11.684;2023-01-01T06:56:20;4.55;;;2.13;;
23402;SDS011;11874;48.228;11.684;2023-01-01T06:58:48;3.67;;;2.05;;
23402;SDS011;11874;48.228;11.684;2023-01-01T07:01:16;3.25;;;2.42;;
23402;SDS011;11874;48.228;11.684;2023-01-01T07:03:48;4.32;;;2.25;;
23402;SDS011;11874;48.228;11.684;2023-01-01T07:06:17;3.38;;;2.40;;
23402;SDS011;11874;48.228;11.684;2023-01-01T07:08:46;3.72;;;2.70;;
23402;SDS011;11874;48.228;11.684;2023-01-01T07:11:14;4.50;;;2.70;;
23402;SDS011;11874;48.228;11.684;2023-01-01T07:13:42;5.25;;;2.30;;
23402;SDS011;11874;48.228;11.684;2023-01-01T07:16:10;4.57;;;3.05;;
23402;SDS011;11874;48.228;11.684;2023-01-01T07:18:39;5.55;;;2.40;;
23402;SDS011;11874;48.228;11.684;2023-01-01T07:21:20;4.20;;;2.40;;
23402;SDS011;11874;48.228;11.684;2023-01-01T07:23:56;3.47;;;2.50;;
23402;SDS011;11874;48.228;11.684;2023-01-01T07:26:24;4.95;;;2.30;;
23402;SDS011;11874;48.228;11.684;2023-01-01T07:28:53;3.85;;;2.33;;
23402;SDS011;11874;48.228;11.684;2023-01-01T07:31:31;3.53;;;2.53;;
23402;SDS011;11874;48.228;11.684;2023-01-01T07:33:59;4.53;;;2.33;;
23402;SDS011;11874;48.228;11.684;2023-01-01T07:36:26;5.10;;;2.15;;
23402;SDS011;11874;48.228;11.684;2023-01-01T07:38:54;3.60;;;2.03;;
23402;SDS011;11874;48.228;11.684;2023-01-01T07:41:23;2.40;;;1.90;;
23402;SDS011;11874;48.228;11.684;2023-01-01T07:43:51;3.03;;;1.95;;
23402;SDS011;11874;48.228;11.684;2023-01-01T07:46:19;4.13;;;2.03;;
23402;SDS011;11874;48.228;11.684;2023-01-01T07:48:47;3.25;;;2.13;;
23402;SDS011;11874;48.228;11.684;2023-01-01T07:51:15;3.40;;;1.95;;
23402;SDS011;11874;48.228;11.684;2023-01-01T07:53:42;4.13;;;2.45;;
23402;SDS011;11874;48.228;11.684;2023-01-01T07:56:11;3.40;;;1.92;;
23402;SDS011;11874;48.228;11.684;2023-01-01T07:58:39;2.60;;;1.80;;
23402;SDS011;11874;48.228;11.684;2023-01-01T08:01:08;2.75;;;2.10;;
23402;SDS011;11874;48.228;11.684;2023-01-01T08:03:37;3.42;;;2.20;;
23402;SDS011;11874;48.228;11.684;2023-01-01T08:06:05;3.05;;;1.92;;
23402;SDS011;11874;48.228;11.684;2023-01-01T08:08:34;2.78;;;1.80;;
23402;SDS011;11874;48.228;11.684;2023-01-01T08:11:02;2.53;;;1.92;;
23402;SDS011;11874;48.228;11.684;2023-01-01T08:13:32;2.55;;;1.73;;
23402;SDS011;11874;48.228;11.684;2023-01-01T08:16:00;2.25;;;1.83;;
23402;SDS011;11874;48.228;11.684;2023-01-01T08:18:28;2.78;;;1.80;;
23402;SDS011;11874;48.228;11.684;2023-01-01T08:20:56;2.15;;;1.75;;
23402;SDS011;11874;48.228;11.684;2023-01-01T08:23:23;2.97;;;1.73;;
23402;SDS011;11874;48.228;11.684;2023-01-01T08:25:51;3.08;;;1.58;;
23402;SDS011;11874;48.228;11.684;2023-01-01T08:28:19;2.65;;;2.05;;
23402;SDS011;11874;48.228;11.684;2023-01-01T08:30:48;2.92;;;1.60;;
23402;SDS011;11874;48.228;11.684;2023-01-01T08:33:16;2.25;;;1.42;;
23402;SDS011;11874;48.228;11.684;2023-01-01T08:35:44;2.25;;;1.65;;
23402;SDS011;11874;48.228;11.684;2023-01-01T08:38:19;4.30;;;2.10;;
23402;SDS011;11874;48.228;11.684;2023-01-01T08:40:47;6.07;;;1.67;;
23402;SDS011;11874;48.228;11.684;2023-01-01T08:43:14;2.53;;;1.88;;
23402;SDS011;11874;48.228;11.684;2023-01-01T08:45:42;4.07;;;1.48;;
23402;SDS011;11874;48.228;11.684;2023-01-01T08:48:12;2.95;;;1.50;;
23402;SDS011;11874;48.228;11.684;2023-01-01T08:50:39;2.30;;;1.73;;
23402;SDS011;11874;48.228;11.684;2023-01-01T08:53:07;2.08;;;1.50;;
23402;SDS011;11874;48.228;11.684;2023-01-01T08:55:35;1.75;;;1.50;;
23402;SDS011;11874;48.228;11.684;2023-01-01T08:58:04;2.15;;;1.55;;
23402;SDS011;11874;48.228;11.684;2023-01-01T09:00:32;2.85;;;1.60;;
23402;SDS011;11874;48.228;11.684;2023-01-01T09:03:00;2.30;;;1.80;;
23402;SDS011;11874;48.228;11.684;2023-01-01T09:05:29;2.30;;;1.90;;
23402;SDS011;11874;48.228;11.684;2023-01-01T09:07:57;2.22;;;1.60;;
23402;SDS011;11874;48.228;11.684;2023-01-01T09:10:25;2.88;;;1.88;;
23402;SDS011;11874;48.228;11.684;2023-01-01T09:12:52;2.47;;;1.92;;
23402;SDS011;11874;48.228;11.684;2023-01-01T09:15:20;2.38;;;1.80;;
23402;SDS011;11874;48.228;11.684;2023-01-01T09:17:48;3.63;;;2.03;;
23402;SDS011;11874;48.228;11.684;2023-01-01T09:20:16;2.97;;;1.58;;
23402;SDS011;11874;48.228;11.684;2023-01-01T09:22:45;2.58;;;2.03;;
23402;SDS011;11874;48.228;11.684;2023-01-01T09:25:13;3.53;;;2.50;;
23402;SDS011;11874;48.228;11.684;2023-01-01T09:27:41;3.70;;;2.10;;
23402;SDS011;11874;48.228;11.684;2023-01-01T09:30:09;4.28;;;2.15;;
23402;SDS011;11874;48.228;11.684;2023-01-01T09:32:37;3.20;;;1.80;;
23402;SDS011;11874;48.228;11.684;2023-01-01T09:35:05;2.90;;;1.90;;
23402;SDS011;11874;48.228;11.684;2023-01-01T09:37:33;4.05;;;2.03;;
23402;SDS011;11874;48.228;11.684;2023-01-01T09:40:03;2.42;;;1.88;;
23402;SDS011;11874;48.228;11.684;2023-01-01T09:42:32;3.58;;;2.50;;
23402;SDS011;11874;48.228;11.684;2023-01-01T09:45:08;3.45;;;2.42;;
23402;SDS011;11874;48.228;11.684;2023-01-01T09:47:46;6.75;;;2.40;;
23402;SDS011;11874;48.228;11.684;2023-01-01T09:50:18;4.25;;;2.42;;
23402;SDS011;11874;48.228;11.684;2023-01-01T09:52:49;4.65;;;2.85;;
23402;SDS011;11874;48.228;11.684;2023-01-01T09:55:23;4.40;;;2.65;;
23402;SDS011;11874;48.228;11.684;2023-01-01T09:57:53;4.22;;;2.25;;
23402;SDS011;11874;48.228;11.684;2023-01-01T10:00:22;4.03;;;2.53;;
23402;SDS011;11874;48.228;11.684;2023-01-01T10:02:56;2.63;;;2.25;;
23402;SDS011;11874;48.228;11.684;2023-01-01T10:08:11;7.68;;;3.03;;
23402;SDS011;11874;48.228;11.684;2023-01-01T10:10:51;5.22;;;1.80;;
23402;SDS011;11874;48.228;11.684;2023-01-01T10:13:26;3.90;;;2.15;;
23402;SDS011;11874;48.228;11.684;2023-01-01T10:16:00;4.95;;;2.05;;
23402;SDS011;11874;48.228;11.684;2023-01-01T10:18:35;3.85;;;1.60;;
23402;SDS011;11874;48.228;11.684;2023-01-01T10:21:06;2.25;;;1.75;;
23402;SDS011;11874;48.228;11.684;2023-01-01T10:23:39;3.10;;;1.98;;
23402;SDS011;11874;48.228;11.684;2023-01-01T10:26:12;7.35;;;1.88;;
23402;SDS011;11874;48.228;11.684;2023-01-01T10:28:45;2.33;;;1.73;;
23402;SDS011;11874;48.228;11.684;2023-01-01T10:31:18;2.63;;;1.75;;
23402;SDS011;11874;48.228;11.684;2023-01-01T10:33:52;3.72;;;1.80;;
23402;SDS011;11874;48.228;11.684;2023-01-01T10:36:20;2.75;;;1.88;;
23402;SDS011;11874;48.228;11.684;2023-01-01T10:38:48;5.05;;;2.03;;
23402;SDS011;11874;48.228;11.684;2023-01-01T10:41:18;1.90;;;1.70;;
23402;SDS011;11874;48.228;11.684;2023-01-01T10:43:46;4.20;;;1.83;;
23402;SDS011;11874;48.228;11.684;2023-01-01T10:46:15;4.15;;;1.63;;
23402;SDS011;11874;48.228;11.684;2023-01-01T10:49:04;3.60;;;2.13;;
23402;SDS011;11874;48.228;11.684;2023-01-01T10:51:36;2.38;;;1.85;;
23402;SDS011;11874;48.228;11.684;2023-01-01T10:56:46;2.92;;;1.70;;
23402;SDS011;11874;48.228;11.684;2023-01-01T10:59:31;2.85;;;1.75;;
23402;SDS011;11874;48.228;11.684;2023-01-01T11:02:10;4.25;;;1.90;;
23402;SDS011;11874;48.228;11.684;2023-01-01T11:04:42;3.03;;;1.92;;
23402;SDS011;11874;48.228;11.684;2023-01-01T11:07:13;3.88;;;1.98;;
23402;SDS011;11874;48.228;11.684;2023-01-01T11:09:47;2.42;;;1.60;;
23402;SDS011;11874;48.228;11.684;2023-01-01T11:12:32;3.58;;;1.80;;
23402;SDS011;11874;48.228;11.684;2023-01-01T11:15:24;1.90;;;1.60;;
23402;SDS011;11874;48.228;11.684;2023-01-01T11:18:03;2.38;;;1.88;;
23402;SDS011;11874;48.228;11.684;2023-01-01T11:20:32;2.50;;;1.70;;
23402;SDS011;11874;48.228;11.684;2023-01-01T11:23:16;3.35;;;2.00;;
23402;SDS011;11874;48.228;11.684;2023-01-01T11:25:56;2.10;;;1.63;;
23402;SDS011;11874;48.228;11.684;2023-01-01T11:28:27;3.80;;;2.30;;
23402;SDS011;11874;48.228;11.684;2023-01-01T11:30:57;2.03;;;1.53;;
23402;SDS011;11874;48.228;11.684;2023-01-01T11:33:37;4.00;;;1.50;;
23402;SDS011;11874;48.228;11.684;2023-01-01T11:36:10;2.67;;;1.88;;
23402;SDS011;11874;48.228;11.684;2023-01-01T11:38:46;3.08;;;1.80;;
23402;SDS011;11874;48.228;11.684;2023-01-01T11:41:16;1.52;;;1.33;;
23402;SDS011;11874;48.228;11.684;2023-01-01T11:43:45;2.13;;;1.60;;
23402;SDS011;11874;48.228;11.684;2023-01-01T11:46:16;3.53;;;1.83;;
23402;SDS011;11874;48.228;11.684;2023-01-01T11:48:49;2.72;;;1.73;;
23402;SDS011;11874;48.228;11.684;2023-01-01T11:51:29;2.20;;;1.52;;
23402;SDS011;11874;48.228;11.684;2023-01-01T11:54:23;4.10;;;1.70;;
23402;SDS011;11874;48.228;11.684;2023-01-01T11:56:57;3.47;;;1.80;;
23402;SDS011;11874;48.228;11.684;2023-01-01T11:59:33;3.03;;;1.60;;
23402;SDS011;11874;48.228;11.684;2023-01-01T12:02:09;5.40;;;1.80;;
23402;SDS011;11874;48.228;11.684;2023-01-01T12:04:42;2.70;;;1.80;;
23402;SDS011;11874;48.228;11.684;2023-01-01T12:07:15;3.13;;;1.50;;
23402;SDS011;11874;48.228;11.684;2023-01-01T12:09:49;2.47;;;1.60;;
23402;SDS011;11874;48.228;11.684;2023-01-01T12:12:22;1.70;;;1.30;;
23402;SDS011;11874;48.228;11.684;2023-01-01T12:14:57;2.72;;;1.88;;
23402;SDS011;11874;48.228;11.684;2023-01-01T12:17:31;2.58;;;1.70;;
23402;SDS011;11874;48.228;11.684;2023-01-01T12:20:04;5.50;;;1.38;;
23402;SDS011;11874;48.228;11.684;2023-01-01T12:22:37;3.28;;;1.95;;
23402;SDS011;11874;48.228;11.684;2023-01-01T12:25:08;1.52;;;1.38;;
23402;SDS011;11874;48.228;11.684;2023-01-01T12:27:42;3.55;;;1.35;;
23402;SDS011;11874;48.228;11.684;2023-01-01T12:30:23;2.47;;;1.25;;
23402;SDS011;11874;48.228;11.684;2023-01-01T12:33:00;2.55;;;1.35;;
23402;SDS011;11874;48.228;11.684;2023-01-01T12:35:57;3.08;;;1.70;;
23402;SDS011;11874;48.228;11.684;2023-01-01T12:38:36;3.38;;;1.40;;
23402;SDS011;11874;48.228;11.684;2023-01-01T12:41:17;4.35;;;1.50;;
23402;SDS011;11874;48.228;11.684;2023-01-01T12:43:56;4.75;;;1.40;;
23402;SDS011;11874;48.228;11.684;2023-01-01T12:46:35;3.30;;;1.50;;
23402;SDS011;11874;48.228;11.684;2023-01-01T12:49:17;6.55;;;1.80;;
23402;SDS011;11874;48.228;11.684;2023-01-01T12:51:56;2.67;;;1.45;;
23402;SDS011;11874;48.228;11.684;2023-01-01T12:58:20;1.52;;;1.20;;
23402;SDS011;11874;48.228;11.684;2023-01-01T13:13:19;2.38;;;1.33;;
23402;SDS011;11874;48.228;11.684;2023-01-01T13:20:23;1.92;;;1.58;;
23402;SDS011;11874;48.228;11.684;2023-01-01T13:27:58;3.33;;;1.58;;
23402;SDS011;11874;48.228;11.684;2023-01-01T13:31:08;2.55;;;1.38;;
23402;SDS011;11874;48.228;11.684;2023-01-01T14:11:16;2.17;;;1.70;;
23402;SDS011;11874;48.228;11.684;2023-01-01T14:24:51;2.50;;;2.17;;
23402;SDS011;11874;48.228;11.684;2023-01-01T14:27:19;4.57;;;2.25;;
23402;SDS011;11874;48.228;11.684;2023-01-01T14:29:48;5.60;;;2.60;;
23402;SDS011;11874;48.228;11.684;2023-01-01T14:32:20;5.50;;;2.63;;
23402;SDS011;11874;48.228;11.684;2023-01-01T14:34:59;4.25;;;2.80;;
23402;SDS011;11874;48.228;11.684;2023-01-01T14:37:28;3.17;;;2.63;;
23402;SDS011;11874;48.228;11.684;2023-01-01T14:40:07;4.18;;;2.63;;
23402;SDS011;11874;48.228;11.684;2023-01-01T14:42:42;3.28;;;2.70;;
23402;SDS011;11874;48.228;11.684;2023-01-01T14:45:13;3.45;;;2.95;;
23402;SDS011;11874;48.228;11.684;2023-01-01T14:47:43;4.90;;;2.83;;
23402;SDS011;11874;48.228;11.684;2023-01-01T14:50:17;4.90;;;2.75;;
23402;SDS011;11874;48.228;11.684;2023-01-01T14:52:50;4.13;;;2.72;;
23402;SDS011;11874;48.228;11.684;2023-01-01T14:55:30;3.85;;;2.80;;
23402;SDS011;11874;48.228;11.684;2023-01-01T14:58:01;4.15;;;2.80;;
23402;SDS011;11874;48.228;11.684;2023-01-01T15:00:30;2.97;;;2.65;;
23402;SDS011;11874;48.228;11.684;2023-01-01T15:03:03;3.30;;;2.60;;
23402;SDS011;11874;48.228;11.684;2023-01-01T15:05:33;3.40;;;2.25;;
23402;SDS011;11874;48.228;11.684;2023-01-01T15:08:03;6.88;;;2.33;;
23402;SDS011;11874;48.228;11.684;2023-01-01T15:10:34;2.25;;;1.70;;
23402;SDS011;11874;48.228;11.684;2023-01-01T15:13:04;3.05;;;2.35;;
23402;SDS011;11874;48.228;11.684;2023-01-01T15:15:37;3.25;;;2.20;;
23402;SDS011;11874;48.228;11.684;2023-01-01T15:18:14;4.35;;;2.35;;
23402;SDS011;11874;48.228;11.684;2023-01-01T15:21:05;4.38;;;2.00;;
23402;SDS011;11874;48.228;11.684;2023-01-01T15:23:38;4.05;;;1.85;;
23402;SDS011;11874;48.228;11.684;2023-01-01T15:26:12;2.10;;;1.70;;
23402;SDS011;11874;48.228;11.684;2023-01-01T15:28:51;3.70;;;2.05;;
23402;SDS011;11874;48.228;11.684;2023-01-01T15:31:20;4.72;;;2.50;;
23402;SDS011;11874;48.228;11.684;2023-01-01T15:33:49;2.15;;;1.85;;
23402;SDS011;11874;48.228;11.684;2023-01-01T15:36:22;1.70;;;1.60;;
23402;SDS011;11874;48.228;11.684;2023-01-01T15:38:50;3.10;;;2.00;;
23402;SDS011;11874;48.228;11.684;2023-01-01T15:41:22;3.15;;;2.05;;
23402;SDS011;11874;48.228;11.684;2023-01-01T15:46:32;3.75;;;2.50;;
23402;SDS011;11874;48.228;11.684;2023-01-01T15:49:02;3.70;;;2.63;;
23402;SDS011;11874;48.228;11.684;2023-01-01T15:51:29;5.40;;;2.45;;
23402;SDS011;11874;48.228;11.684;2023-01-01T15:53:58;7.53;;;3.67;;
23402;SDS011;11874;48.228;11.684;2023-01-01T15:56:28;8.00;;;3.40;;
23402;SDS011;11874;48.228;11.684;2023-01-01T15:58:59;6.70;;;3.20;;
23402;SDS011;11874;48.228;11.684;2023-01-01T16:01:35;7.82;;;3.58;;
23402;SDS011;11874;48.228;11.684;2023-01-01T16:04:07;5.78;;;3.22;;
23402;SDS011;11874;48.228;11.684;2023-01-01T16:06:41;9.43;;;3.92;;
23402;SDS011;11874;48.228;11.684;2023-01-01T16:09:10;8.40;;;3.92;;
23402;SDS011;11874;48.228;11.684;2023-01-01T16:11:38;5.95;;;3.80;;
23402;SDS011;11874;48.228;11.684;2023-01-01T16:14:06;11.02;;;5.28;;